ADDS METAR Data INFO
IDs: Format: Raw Decoded Include TAF

Data at: 1730 UTC 25 Feb 2018

KHBR 251653Z AUTO 19011KT 10SM CLR 10/04 A3004 RMK AO2 SLP175 T01000044
KHBR 251553Z AUTO 18012KT 9SM CLR 07/05 A3005 RMK AO2 SLP180 T00720050
KHBR 251453Z AUTO 20004KT 4SM BR CLR 03/02 A3003 RMK AO2 SLP177 T00280017 51011
KHBR 251353Z AUTO 19006KT 4SM BR CLR 01/00 A3002 RMK AO2 SLP174 T00060000
KHBR 251253Z AUTO 23003KT 5SM BR CLR M01/M02 A3002 RMK AO2 SLP171 T10061017
KHBR 251153Z AUTO 25005KT 7SM CLR M01/M01 A3000 RMK AO2 SLP163 T10061011 10022 21006 53007
KHBR 251053Z AUTO 21009KT 9SM CLR 01/M01 A2999 RMK AO2 SLP156 T00061011
KHBR 250953Z AUTO 22009KT 10SM CLR 01/M01 A2998 RMK AO2 SLP152 T00061011
KHBR 250853Z AUTO 21008KT 10SM CLR 01/M01 A2998 RMK AO2 SLP153 T00061011 58009
KHBR 250753Z AUTO 21006KT 10SM CLR 01/M01 A2999 RMK AO2 SLP159 T00111011
KHBR 250653Z AUTO 00000KT 10SM CLR 01/M01 A3000 RMK AO2 SLP162 T00111011
KHBR 250553Z AUTO 18003KT 10SM CLR 02/00 A3001 RMK AO2 SLP166 T00170000 10111 20006 401560006 51007
KHBR 250453Z AUTO 10006KT 10SM CLR 01/M01 A3000 RMK AO2 SLP165 T00111006
KHBR 250353Z AUTO 08008KT 10SM CLR 03/01 A3000 RMK AO2 SLP165 T00280006
KHBR 250253Z AUTO 07007KT 10SM CLR 03/01 A2998 RMK AO2 SLP160 T00330011 51026
KHBR 250153Z AUTO 07009KT 10SM CLR 05/02 A2996 RMK AO2 SLP152 T00500017
KHBR 250053Z AUTO 05010KT 10SM CLR 08/02 A2993 RMK AO2 SLP139 T00780022
KHBR 242353Z AUTO 02010KT 10SM CLR 11/03 A2990 RMK AO2 SLP128 T01110028 10156 20078 51027
KHBR 242253Z AUTO 01011KT 10SM CLR 13/04 A2988 RMK AO2 SLP118 T01330039
KHBR 242153Z AUTO 03013KT 10SM FEW035 13/06 A2985 RMK AO2 SLP109 T01330061
KHBR 242053Z AUTO 01007KT 10SM FEW031 14/06 A2982 RMK AO2 SLP097 T01390061 56022
KHBR 241953Z AUTO VRB05KT 10SM CLR 11/06 A2983 RMK AO2 SLP102 T01110056
KHBR 241920Z AUTO 23010KT 10SM SCT013 10/06 A2985 RMK AO2 T01000056
KHBR 241853Z AUTO 27011KT 10SM BKN013 09/06 A2986 RMK AO2 SLP116 T00940056
KHBR 241753Z AUTO 25008KT 10SM OVC011 07/04 A2989 RMK AO2 SLP124 60000 T00720044 10078 20028 55004
KHBR 241712Z AUTO 30005KT 10SM OVC011 07/04 A2990 RMK AO2 T00720039
KHBR 241653Z AUTO 03003KT 10SM BKN009 08/04 A2989 RMK AO2 CIG 007V013 SLP123 T00780039
KHBR 241640Z AUTO 04005KT 10SM SCT007 07/04 A2988 RMK AO2 T00670039
KHBR 241553Z AUTO 04006KT 10SM BKN005 BKN031 06/04 A2989 RMK AO2 SLP126 T00560039
KHBR 241526Z AUTO 36009KT 10SM BKN005 OVC023 04/03 A2990 RMK AO2 T00390028
KHBR 241453Z AUTO 36011KT 3SM BR BKN004 OVC022 03/02 A2990 RMK AO2 SLP132 60000 T00280022 50013
KHBR 241442Z AUTO 35011KT 2SM BR BKN004 OVC019 03/02 A2990 RMK AO2 T00280022
KHBR 241438Z AUTO 35011KT 1 3/4SM BR SCT004 BKN019 OVC024 03/02 A2991 RMK AO2 T00280022
KHBR 241421Z AUTO 34008KT 2 1/2SM BR SCT004 OVC017 03/02 A2991 RMK AO2 T00280022
KHBR 241353Z AUTO 01006KT 3SM BR OVC004 03/03 A2990 RMK AO2 LTG DSNT NE-SE UPB03E25RAB10E26 TSE19 SLP132 P0000 T00280028
KHBR 241348Z AUTO 01005KT 2 1/2SM BR OVC004 03/03 A2989 RMK AO2 LTG DSNT NE-SE UPB03E25RAB10E26 TSE19 P0000
KHBR 241325Z AUTO 36008KT 2 1/2SM VCTS -RA BR OVC003 03/02 A2986 RMK AO2 LTG DSNT NE-S UPB03E25RAB10 TSE19 P0000 T00280022
KHBR 241309Z AUTO 01005KT 2SM TSUP BR OVC003 03/03 A2987 RMK AO2 LTG DSNT NE-S UPB03 P0000 T00280028
KHBR 241253Z AUTO 03007KT 1 1/2SM TS BR OVC003 03/02 A2986 RMK AO2 LTG DSNT E-SW TSB53 SLP119 T00280022
KHBR 241153Z AUTO 05007KT 1 1/2SM BR OVC002 03/02 A2989 RMK AO2 SLP127 70005 T00280022 10028 20028 58020
KHBR 241114Z AUTO 04007KT 1 1/2SM BR OVC003 03/02 A2989 RMK AO2 T00280022
KHBR 241107Z AUTO 05007KT 2SM BR OVC003 03/02 A2989 RMK AO2 T00280022
KHBR 241053Z AUTO 04005KT 1 1/4SM BR OVC002 03/02 A2991 RMK AO2 SLP133 T00280022
KHBR 241020Z AUTO 06005KT 2 1/2SM BR OVC002 03/02 A2992 RMK AO2 T00280022
KHBR 240953Z AUTO 00000KT 4SM BR OVC003 03/02 A2994 RMK AO2 SLP143 T00280022
KHBR 240911Z AUTO 03005KT 3SM BR BKN003 OVC012 03/02 A2992 RMK AO2 T00280022
KHBR 240853Z AUTO 03004KT 2 1/2SM BR SCT002 OVC012 03/02 A2995 RMK AO2 SLP148 T00280022 56012
KHBR 240849Z AUTO 04005KT 2 1/2SM BR SCT002 OVC012 03/02 A2995 RMK AO2
KHBR 240753Z AUTO 06007KT 2SM BR OVC002 03/02 A2996 RMK AO2 SLP150 T00280022
KHBR 240653Z AUTO 08006KT 2 1/2SM BR OVC003 03/02 A2998 RMK AO2 SLP161 T00280022
KHBR 240606Z AUTO 08007KT 3SM BR BKN004 OVC009 03/02 A3001 RMK AO2 T00280022
KHBR 240553Z AUTO 08006KT 2 1/2SM BR OVC004 03/02 A3002 RMK AO2 SLP173 T00280022 10028 20022 400330006 58013